sensor_id;sensor_type;location;lat;lon;timestamp;pressure;altitude;pressure_sealevel;temperature;humidity
48882;BME280;57063;51.406;-2.402;2022-07-18T05:45:37;100939.59;;;22.39;53.36
48882;BME280;57063;51.406;-2.402;2022-07-18T05:48:03;100936.59;;;22.50;53.74
48882;BME280;57063;51.406;-2.402;2022-07-18T05:50:29;100949.94;;;22.58;52.22
48882;BME280;57063;51.406;-2.402;2022-07-18T05:52:54;100943.75;;;22.66;51.50
48882;BME280;57063;51.406;-2.402;2022-07-18T05:55:20;100944.59;;;22.75;51.17
48882;BME280;57063;51.406;-2.402;2022-07-18T05:57:46;100944.38;;;22.93;49.70
48882;BME280;57063;51.406;-2.402;2022-07-18T06:00:12;100943.34;;;23.02;51.49
48882;BME280;57063;51.406;-2.402;2022-07-18T06:02:38;100951.50;;;23.17;51.98
48882;BME280;57063;51.406;-2.402;2022-07-18T06:05:05;100957.97;;;23.31;52.45
48882;BME280;57063;51.406;-2.402;2022-07-18T06:07:31;100950.75;;;23.31;51.51
48882;BME280;57063;51.406;-2.402;2022-07-18T06:09:56;100953.50;;;23.54;52.14
48882;BME280;57063;51.406;-2.402;2022-07-18T06:12:22;100954.44;;;23.70;52.36
48882;BME280;57063;51.406;-2.402;2022-07-18T06:14:48;100955.53;;;23.84;51.47
48882;BME280;57063;51.406;-2.402;2022-07-18T06:17:13;100953.22;;;24.04;51.39
48882;BME280;57063;51.406;-2.402;2022-07-18T06:19:38;100953.41;;;24.78;50.25
48882;BME280;57063;51.406;-2.402;2022-07-18T06:22:05;100952.13;;;25.70;48.71
48882;BME280;57063;51.406;-2.402;2022-07-18T06:24:30;100954.03;;;25.91;48.06
48882;BME280;57063;51.406;-2.402;2022-07-18T06:26:56;100943.31;;;27.10;45.48
48882;BME280;57063;51.406;-2.402;2022-07-18T06:29:21;100950.91;;;26.94;44.50
48882;BME280;57063;51.406;-2.402;2022-07-18T06:31:47;100954.41;;;28.84;42.30
48882;BME280;57063;51.406;-2.402;2022-07-18T06:34:12;100953.06;;;29.97;39.23
48882;BME280;57063;51.406;-2.402;2022-07-18T06:36:37;100951.53;;;30.39;37.72
48882;BME280;57063;51.406;-2.402;2022-07-18T06:39:03;100947.72;;;29.90;37.61
48882;BME280;57063;51.406;-2.402;2022-07-18T06:41:33;100950.81;;;30.69;37.13
48882;BME280;57063;51.406;-2.402;2022-07-18T06:43:59;100947.16;;;31.68;34.29
48882;BME280;57063;51.406;-2.402;2022-07-18T06:46:24;100948.84;;;34.25;30.41
48882;BME280;57063;51.406;-2.402;2022-07-18T06:48:50;100938.38;;;36.74;28.45
48882;BME280;57063;51.406;-2.402;2022-07-18T06:51:15;100935.09;;;38.37;22.43
48882;BME280;57063;51.406;-2.402;2022-07-18T06:53:41;100937.22;;;39.26;22.93
48882;BME280;57063;51.406;-2.402;2022-07-18T06:56:06;100948.28;;;40.58;21.16
48882;BME280;57063;51.406;-2.402;2022-07-18T06:58:32;100941.41;;;40.80;19.42
48882;BME280;57063;51.406;-2.402;2022-07-18T07:00:58;100942.91;;;42.05;19.05
48882;BME280;57063;51.406;-2.402;2022-07-18T07:03:23;100943.34;;;42.68;18.06
48882;BME280;57063;51.406;-2.402;2022-07-18T07:05:49;100929.72;;;43.49;17.09
48882;BME280;57063;51.406;-2.402;2022-07-18T07:08:14;100939.06;;;43.62;17.94
48882;BME280;57063;51.406;-2.402;2022-07-18T07:10:40;100937.28;;;44.51;16.57
48882;BME280;57063;51.406;-2.402;2022-07-18T07:13:05;100931.25;;;44.89;17.21
48882;BME280;57063;51.406;-2.402;2022-07-18T07:15:30;100930.09;;;45.25;15.84
48882;BME280;57063;51.406;-2.402;2022-07-18T07:17:55;100931.25;;;45.07;15.93
48882;BME280;57063;51.406;-2.402;2022-07-18T07:20:21;100936.50;;;46.17;15.08
48882;BME280;57063;51.406;-2.402;2022-07-18T07:22:53;100919.66;;;45.66;15.07
48882;BME280;57063;51.406;-2.402;2022-07-18T07:25:19;100922.47;;;45.48;15.29
48882;BME280;57063;51.406;-2.402;2022-07-18T07:27:45;100924.75;;;45.38;15.54
48882;BME280;57063;51.406;-2.402;2022-07-18T07:30:11;100928.91;;;45.87;14.84
48882;BME280;57063;51.406;-2.402;2022-07-18T07:32:37;100928.03;;;46.13;15.68
48882;BME280;57063;51.406;-2.402;2022-07-18T07:35:03;100923.00;;;46.96;14.47
48882;BME280;57063;51.406;-2.402;2022-07-18T07:37:28;100919.28;;;48.25;13.64
48882;BME280;57063;51.406;-2.402;2022-07-18T07:39:54;100912.91;;;48.49;13.58
48882;BME280;57063;51.406;-2.402;2022-07-18T07:42:19;100903.97;;;49.09;13.02
48882;BME280;57063;51.406;-2.402;2022-07-18T07:44:44;100900.16;;;49.01;13.39
48882;BME280;57063;51.406;-2.402;2022-07-18T07:47:10;100907.00;;;48.38;13.71
48882;BME280;57063;51.406;-2.402;2022-07-18T07:49:35;100907.66;;;48.72;12.91
48882;BME280;57063;51.406;-2.402;2022-07-18T07:52:01;100881.34;;;48.33;13.51
48882;BME280;57063;51.406;-2.402;2022-07-18T07:54:27;100894.75;;;49.20;13.02
48882;BME280;57063;51.406;-2.402;2022-07-18T07:56:52;100907.13;;;50.27;13.00
48882;BME280;57063;51.406;-2.402;2022-07-18T07:59:17;100892.06;;;49.68;13.18
48882;BME280;57063;51.406;-2.402;2022-07-18T08:01:43;100858.31;;;50.21;12.27
48882;BME280;57063;51.406;-2.402;2022-07-18T08:04:08;100885.38;;;49.41;13.20
48882;BME280;57063;51.406;-2.402;2022-07-18T08:06:33;100885.28;;;50.49;12.60
48882;BME280;57063;51.406;-2.402;2022-07-18T08:08:58;100863.47;;;50.54;12.49
48882;BME280;57063;51.406;-2.402;2022-07-18T08:11:24;100895.09;;;50.78;13.03
48882;BME280;57063;51.406;-2.402;2022-07-18T08:13:49;100902.25;;;50.95;12.84
48882;BME280;57063;51.406;-2.402;2022-07-18T08:16:14;100897.72;;;51.26;13.40
48882;BME280;57063;51.406;-2.402;2022-07-18T08:18:39;100891.63;;;51.43;12.78
48882;BME280;57063;51.406;-2.402;2022-07-18T08:21:05;100891.53;;;51.82;12.20
48882;BME280;57063;51.406;-2.402;2022-07-18T08:23:30;100899.22;;;48.32;14.26
48882;BME280;57063;51.406;-2.402;2022-07-18T08:25:55;100894.88;;;46.17;15.78
48882;BME280;57063;51.406;-2.402;2022-07-18T08:28:20;100896.34;;;45.06;16.55
48882;BME280;57063;51.406;-2.402;2022-07-18T08:30:46;100898.19;;;44.44;17.44
48882;BME280;57063;51.406;-2.402;2022-07-18T08:33:11;100887.38;;;43.26;17.84
48882;BME280;57063;51.406;-2.402;2022-07-18T08:35:36;100896.09;;;42.83;18.65
48882;BME280;57063;51.406;-2.402;2022-07-18T08:38:03;100897.75;;;42.43;19.78
48882;BME280;57063;51.406;-2.402;2022-07-18T08:40:29;100904.19;;;41.26;20.82
48882;BME280;57063;51.406;-2.402;2022-07-18T08:42:56;100901.78;;;40.33;22.40
48882;BME280;57063;51.406;-2.402;2022-07-18T08:45:23;100895.91;;;39.81;22.69
48882;BME280;57063;51.406;-2.402;2022-07-18T08:47:49;100897.00;;;40.14;21.71
48882;BME280;57063;51.406;-2.402;2022-07-18T08:50:15;100893.50;;;39.35;23.24
48882;BME280;57063;51.406;-2.402;2022-07-18T08:52:41;100899.13;;;38.54;23.39
48882;BME280;57063;51.406;-2.402;2022-07-18T08:55:07;100895.28;;;38.45;24.02
48882;BME280;57063;51.406;-2.402;2022-07-18T08:57:33;100900.53;;;38.31;25.02
48882;BME280;57063;51.406;-2.402;2022-07-18T08:59:58;100899.75;;;37.89;24.39
48882;BME280;57063;51.406;-2.402;2022-07-18T09:02:25;100903.00;;;37.40;25.62
48882;BME280;57063;51.406;-2.402;2022-07-18T09:04:51;100891.34;;;36.87;27.17
48882;BME280;57063;51.406;-2.402;2022-07-18T09:07:28;100895.81;;;36.50;26.46
48882;BME280;57063;51.406;-2.402;2022-07-18T09:09:56;100895.97;;;35.91;26.83
48882;BME280;57063;51.406;-2.402;2022-07-18T09:12:24;100887.78;;;35.96;27.50
48882;BME280;57063;51.406;-2.402;2022-07-18T09:14:50;100888.34;;;35.61;28.34
48882;BME280;57063;51.406;-2.402;2022-07-18T09:17:17;100885.63;;;36.88;27.33
48882;BME280;57063;51.406;-2.402;2022-07-18T09:20:05;100883.84;;;38.17;26.17
48882;BME280;57063;51.406;-2.402;2022-07-18T09:22:34;100868.88;;;38.70;25.07
48882;BME280;57063;51.406;-2.402;2022-07-18T09:25:07;100881.28;;;39.17;24.29
48882;BME280;57063;51.406;-2.402;2022-07-18T09:35:34;100867.97;;;40.27;22.75
48882;BME280;57063;51.406;-2.402;2022-07-18T09:38:05;100869.50;;;40.62;22.02
48882;BME280;57063;51.406;-2.402;2022-07-18T09:40:38;100868.66;;;40.62;21.93
48882;BME280;57063;51.406;-2.402;2022-07-18T09:43:08;100860.47;;;41.19;22.55
48882;BME280;57063;51.406;-2.402;2022-07-18T09:48:03;100857.28;;;41.12;22.56
48882;BME280;57063;51.406;-2.402;2022-07-18T09:50:30;100860.03;;;41.12;22.13
48882;BME280;57063;51.406;-2.402;2022-07-18T09:53:11;100855.69;;;41.44;21.92
48882;BME280;57063;51.406;-2.402;2022-07-18T09:58:10;100858.25;;;41.87;21.54
48882;BME280;57063;51.406;-2.402;2022-07-18T10:00:38;100849.69;;;41.55;21.65
48882;BME280;57063;51.406;-2.402;2022-07-18T10:03:05;100849.34;;;42.09;21.65
48882;BME280;57063;51.406;-2.402;2022-07-18T10:05:33;100845.03;;;42.16;21.60
48882;BME280;57063;51.406;-2.402;2022-07-18T10:08:00;100842.56;;;42.56;21.20
48882;BME280;57063;51.406;-2.402;2022-07-18T10:10:29;100845.22;;;42.48;20.34
48882;BME280;57063;51.406;-2.402;2022-07-18T10:12:57;100844.31;;;42.52;20.76
48882;BME280;57063;51.406;-2.402;2022-07-18T10:15:24;100846.03;;;42.62;20.96
48882;BME280;57063;51.406;-2.402;2022-07-18T10:17:50;100843.50;;;43.02;20.70
48882;BME280;57063;51.406;-2.402;2022-07-18T10:20:15;100842.69;;;43.47;20.07
48882;BME280;57063;51.406;-2.402;2022-07-18T10:22:40;100837.78;;;43.21;20.18
48882;BME280;57063;51.406;-2.402;2022-07-18T10:25:07;100839.91;;;43.24;20.21
48882;BME280;57063;51.406;-2.402;2022-07-18T10:27:49;100847.03;;;42.80;20.14
48882;BME280;57063;51.406;-2.402;2022-07-18T11:25:12;100810.78;;;43.41;17.83
48882;BME280;57063;51.406;-2.402;2022-07-18T11:27:39;100822.31;;;43.65;17.61
48882;BME280;57063;51.406;-2.402;2022-07-18T11:30:05;100815.16;;;42.96;16.87
48882;BME280;57063;51.406;-2.402;2022-07-18T11:32:31;100824.25;;;43.33;17.18
48882;BME280;57063;51.406;-2.402;2022-07-18T11:34:56;100818.88;;;43.91;17.43
48882;BME280;57063;51.406;-2.402;2022-07-18T11:37:22;100812.75;;;44.11;16.57
48882;BME280;57063;51.406;-2.402;2022-07-18T11:39:47;100810.56;;;43.91;17.03
48882;BME280;57063;51.406;-2.402;2022-07-18T11:50:01;100815.53;;;44.11;17.33
48882;BME280;57063;51.406;-2.402;2022-07-18T11:52:27;100809.78;;;43.99;17.49
48882;BME280;57063;51.406;-2.402;2022-07-18T11:54:52;100813.88;;;43.70;17.31
48882;BME280;57063;51.406;-2.402;2022-07-18T11:57:28;100806.44;;;43.48;18.57
48882;BME280;57063;51.406;-2.402;2022-07-18T11:59:54;100811.41;;;42.92;18.16
48882;BME280;57063;51.406;-2.402;2022-07-18T12:11:10;100785.53;;;43.11;17.90
48882;BME280;57063;51.406;-2.402;2022-07-18T12:13:51;100785.97;;;43.04;19.24
48882;BME280;57063;51.406;-2.402;2022-07-18T12:17:00;100782.38;;;42.45;19.19
48882;BME280;57063;51.406;-2.402;2022-07-18T12:19:10;100794.72;;;41.78;19.96
48882;BME280;57063;51.406;-2.402;2022-07-18T12:21:42;100786.22;;;41.60;21.13
48882;BME280;57063;51.406;-2.402;2022-07-18T12:24:34;100785.97;;;41.43;20.51
48882;BME280;57063;51.406;-2.402;2022-07-18T12:32:25;100780.91;;;40.41;21.81
48882;BME280;57063;51.406;-2.402;2022-07-18T12:34:57;100784.31;;;40.71;21.65
48882;BME280;57063;51.406;-2.402;2022-07-18T12:37:24;100780.47;;;40.91;21.73
48882;BME280;57063;51.406;-2.402;2022-07-18T12:39:55;100783.59;;;41.36;21.68
48882;BME280;57063;51.406;-2.402;2022-07-18T12:42:27;100772.78;;;41.07;20.64
48882;BME280;57063;51.406;-2.402;2022-07-18T12:44:52;100773.19;;;40.62;20.37
48882;BME280;57063;51.406;-2.402;2022-07-18T12:47:18;100778.81;;;40.71;20.49
48882;BME280;57063;51.406;-2.402;2022-07-18T12:49:43;100773.19;;;40.19;22.18
48882;BME280;57063;51.406;-2.402;2022-07-18T12:52:08;100772.59;;;39.98;21.81
48882;BME280;57063;51.406;-2.402;2022-07-18T12:54:34;100767.50;;;39.57;22.23
48882;BME280;57063;51.406;-2.402;2022-07-18T12:56:59;100768.56;;;39.61;22.27
48882;BME280;57063;51.406;-2.402;2022-07-18T12:59:24;100769.94;;;39.30;21.93
48882;BME280;57063;51.406;-2.402;2022-07-18T13:01:50;100773.78;;;39.63;22.35
48882;BME280;57063;51.406;-2.402;2022-07-18T13:04:15;100772.88;;;39.43;22.31
48882;BME280;57063;51.406;-2.402;2022-07-18T13:06:40;100765.94;;;39.17;22.84
48882;BME280;57063;51.406;-2.402;2022-07-18T13:09:06;100766.66;;;39.27;22.57
48882;BME280;57063;51.406;-2.402;2022-07-18T13:11:31;100769.78;;;38.76;22.03
48882;BME280;57063;51.406;-2.402;2022-07-18T13:13:57;100765.13;;;38.77;22.26
48882;BME280;57063;51.406;-2.402;2022-07-18T13:16:22;100760.63;;;38.91;22.22
48882;BME280;57063;51.406;-2.402;2022-07-18T13:18:49;100757.44;;;38.74;22.49
48882;BME280;57063;51.406;-2.402;2022-07-18T13:21:14;100757.44;;;38.74;22.56
48882;BME280;57063;51.406;-2.402;2022-07-18T13:23:41;100753.28;;;38.32;23.13
48882;BME280;57063;51.406;-2.402;2022-07-18T13:26:07;100757.38;;;38.34;23.69
48882;BME280;57063;51.406;-2.402;2022-07-18T13:28:32;100752.22;;;38.27;23.99
48882;BME280;57063;51.406;-2.402;2022-07-18T13:30:58;100755.78;;;38.23;24.11
48882;BME280;57063;51.406;-2.402;2022-07-18T13:33:23;100755.44;;;38.35;24.24
48882;BME280;57063;51.406;-2.402;2022-07-18T13:35:49;100758.22;;;38.29;24.54
48882;BME280;57063;51.406;-2.402;2022-07-18T13:38:14;100759.19;;;38.59;25.43
48882;BME280;57063;51.406;-2.402;2022-07-18T13:40:40;100750.16;;;38.54;23.93
48882;BME280;57063;51.406;-2.402;2022-07-18T13:43:06;100742.91;;;38.73;24.20
48882;BME280;57063;51.406;-2.402;2022-07-18T13:45:31;100748.13;;;38.75;24.13
48882;BME280;57063;51.406;-2.402;2022-07-18T13:47:57;100741.88;;;38.64;23.41
48882;BME280;57063;51.406;-2.402;2022-07-18T13:50:22;100740.41;;;38.27;23.42
48882;BME280;57063;51.406;-2.402;2022-07-18T13:52:48;100738.91;;;38.50;24.26
48882;BME280;57063;51.406;-2.402;2022-07-18T13:55:13;100734.16;;;38.71;23.74
48882;BME280;57063;51.406;-2.402;2022-07-18T13:57:38;100728.63;;;38.26;23.18
48882;BME280;57063;51.406;-2.402;2022-07-18T14:00:04;100721.84;;;38.08;23.54
48882;BME280;57063;51.406;-2.402;2022-07-18T14:02:33;100719.91;;;38.09;22.94
48882;BME280;57063;51.406;-2.402;2022-07-18T14:04:59;100709.41;;;38.26;23.73
48882;BME280;57063;51.406;-2.402;2022-07-18T14:07:24;100707.81;;;38.15;23.77
48882;BME280;57063;51.406;-2.402;2022-07-18T14:09:49;100707.78;;;38.25;23.53
48882;BME280;57063;51.406;-2.402;2022-07-18T14:12:16;100713.63;;;38.14;23.66
48882;BME280;57063;51.406;-2.402;2022-07-18T14:14:41;100711.75;;;37.88;23.97
48882;BME280;57063;51.406;-2.402;2022-07-18T14:17:06;100711.72;;;37.99;24.39
48882;BME280;57063;51.406;-2.402;2022-07-18T14:19:31;100710.06;;;38.08;24.31
48882;BME280;57063;51.406;-2.402;2022-07-18T14:21:57;100703.50;;;37.94;24.40
48882;BME280;57063;51.406;-2.402;2022-07-18T14:24:22;100706.81;;;37.96;24.03
48882;BME280;57063;51.406;-2.402;2022-07-18T14:26:47;100701.88;;;37.93;24.07
48882;BME280;57063;51.406;-2.402;2022-07-18T14:29:13;100698.88;;;37.89;24.47
48882;BME280;57063;51.406;-2.402;2022-07-18T14:31:38;100694.19;;;37.89;24.54
48882;BME280;57063;51.406;-2.402;2022-07-18T14:34:03;100691.78;;;37.88;24.24
48882;BME280;57063;51.406;-2.402;2022-07-18T14:36:29;100692.53;;;37.99;24.23
48882;BME280;57063;51.406;-2.402;2022-07-18T14:38:56;100680.81;;;37.78;24.41
48882;BME280;57063;51.406;-2.402;2022-07-18T14:41:21;100677.75;;;37.89;24.28
48882;BME280;57063;51.406;-2.402;2022-07-18T14:43:46;100676.94;;;37.94;24.03
48882;BME280;57063;51.406;-2.402;2022-07-18T14:46:12;100684.91;;;37.85;24.76
48882;BME280;57063;51.406;-2.402;2022-07-18T14:48:37;100677.28;;;37.77;24.16
48882;BME280;57063;51.406;-2.402;2022-07-18T14:51:03;100675.06;;;37.79;24.28
48882;BME280;57063;51.406;-2.402;2022-07-18T14:53:29;100667.19;;;37.62;24.43
48882;BME280;57063;51.406;-2.402;2022-07-18T14:55:54;100666.84;;;37.79;24.26
48882;BME280;57063;51.406;-2.402;2022-07-18T14:58:20;100660.91;;;37.46;24.39
48882;BME280;57063;51.406;-2.402;2022-07-18T15:00:45;100659.47;;;37.75;25.11
48882;BME280;57063;51.406;-2.402;2022-07-18T15:03:10;100650.47;;;37.64;24.96
48882;BME280;57063;51.406;-2.402;2022-07-18T15:05:36;100651.53;;;37.68;25.11
48882;BME280;57063;51.406;-2.402;2022-07-18T15:08:01;100644.72;;;37.65;24.66
48882;BME280;57063;51.406;-2.402;2022-07-18T15:10:28;100638.03;;;37.87;25.04
48882;BME280;57063;51.406;-2.402;2022-07-18T15:12:53;100641.59;;;37.87;24.33
48882;BME280;57063;51.406;-2.402;2022-07-18T15:15:19;100638.31;;;37.85;24.47
48882;BME280;57063;51.406;-2.402;2022-07-18T15:17:44;100627.88;;;37.87;24.14
48882;BME280;57063;51.406;-2.402;2022-07-18T15:20:10;100625.66;;;38.00;24.54
48882;BME280;57063;51.406;-2.402;2022-07-18T15:22:36;100615.25;;;37.97;24.23
48882;BME280;57063;51.406;-2.402;2022-07-18T15:25:01;100614.72;;;37.89;24.57
48882;BME280;57063;51.406;-2.402;2022-07-18T15:27:27;100613.00;;;38.09;25.02
48882;BME280;57063;51.406;-2.402;2022-07-18T15:29:52;100606.47;;;38.00;24.42
48882;BME280;57063;51.406;-2.402;2022-07-18T15:32:18;100601.53;;;37.97;23.82
48882;BME280;57063;51.406;-2.402;2022-07-18T15:34:43;100607.88;;;37.92;23.82
48882;BME280;57063;51.406;-2.402;2022-07-18T15:37:09;100590.09;;;37.84;21.82
48882;BME280;57063;51.406;-2.402;2022-07-18T15:39:34;100592.09;;;37.68;21.69
48882;BME280;57063;51.406;-2.402;2022-07-18T15:42:01;100599.34;;;37.94;22.37
48882;BME280;57063;51.406;-2.402;2022-07-18T15:44:26;100586.28;;;37.80;22.17
48882;BME280;57063;51.406;-2.402;2022-07-18T15:46:52;100593.03;;;37.98;21.40
48882;BME280;57063;51.406;-2.402;2022-07-18T15:49:18;100593.28;;;38.07;22.56
48882;BME280;57063;51.406;-2.402;2022-07-18T15:51:44;100587.13;;;37.76;21.09
48882;BME280;57063;51.406;-2.402;2022-07-18T15:54:12;100591.78;;;37.80;21.00
48882;BME280;57063;51.406;-2.402;2022-07-18T15:56:38;100583.44;;;38.06;21.44
48882;BME280;57063;51.406;-2.402;2022-07-18T15:59:03;100586.88;;;37.72;21.06
48882;BME280;57063;51.406;-2.402;2022-07-18T16:01:29;100584.03;;;37.87;20.80
48882;BME280;57063;51.406;-2.402;2022-07-18T16:03:54;100579.16;;;37.84;21.38
48882;BME280;57063;51.406;-2.402;2022-07-18T16:06:19;100578.81;;;37.91;21.23
48882;BME280;57063;51.406;-2.402;2022-07-18T16:08:45;100584.97;;;38.17;21.38
48882;BME280;57063;51.406;-2.402;2022-07-18T16:11:10;100574.06;;;38.12;21.14
48882;BME280;57063;51.406;-2.402;2022-07-18T16:13:36;100567.00;;;38.06;20.89
48882;BME280;57063;51.406;-2.402;2022-07-18T16:16:01;100567.38;;;37.79;21.00
48882;BME280;57063;51.406;-2.402;2022-07-18T16:18:27;100576.88;;;37.97;21.30
48882;BME280;57063;51.406;-2.402;2022-07-18T16:20:52;100578.22;;;38.09;21.23
48882;BME280;57063;51.406;-2.402;2022-07-18T16:23:18;100568.13;;;37.95;21.18
48882;BME280;57063;51.406;-2.402;2022-07-18T16:25:43;100576.69;;;37.78;21.23
48882;BME280;57063;51.406;-2.402;2022-07-18T16:28:10;100569.78;;;37.96;21.26
48882;BME280;57063;51.406;-2.402;2022-07-18T16:30:35;100567.56;;;37.98;21.74
48882;BME280;57063;51.406;-2.402;2022-07-18T16:33:01;100567.78;;;38.01;21.43
48882;BME280;57063;51.406;-2.402;2022-07-18T16:35:26;100560.03;;;37.69;21.06
48882;BME280;57063;51.406;-2.402;2022-07-18T16:37:52;100564.66;;;37.74;20.57
48882;BME280;57063;51.406;-2.402;2022-07-18T16:40:17;100567.59;;;37.87;20.81
48882;BME280;57063;51.406;-2.402;2022-07-18T16:42:43;100557.78;;;37.81;21.03
48882;BME280;57063;51.406;-2.402;2022-07-18T16:45:09;100553.31;;;37.41;20.68
48882;BME280;57063;51.406;-2.402;2022-07-18T16:47:35;100551.28;;;37.67;20.76
48882;BME280;57063;51.406;-2.402;2022-07-18T16:50:01;100550.75;;;37.60;21.09
48882;BME280;57063;51.406;-2.402;2022-07-18T16:52:27;100548.56;;;37.62;21.54
48882;BME280;57063;51.406;-2.402;2022-07-18T16:54:52;100549.97;;;37.49;21.57
48882;BME280;57063;51.406;-2.402;2022-07-18T16:57:19;100548.59;;;37.51;21.09
48882;BME280;57063;51.406;-2.402;2022-07-18T16:59:44;100552.19;;;37.47;20.26
48882;BME280;57063;51.406;-2.402;2022-07-18T17:02:10;100547.78;;;37.51;20.47
48882;BME280;57063;51.406;-2.402;2022-07-18T17:04:36;100540.63;;;37.55;19.80
48882;BME280;57063;51.406;-2.402;2022-07-18T17:07:03;100534.59;;;37.63;20.10
48882;BME280;57063;51.406;-2.402;2022-07-18T17:09:28;100538.50;;;37.42;20.69
48882;BME280;57063;51.406;-2.402;2022-07-18T17:11:54;100538.78;;;37.40;20.97
48882;BME280;57063;51.406;-2.402;2022-07-18T17:14:20;100536.56;;;37.47;21.06
48882;BME280;57063;51.406;-2.402;2022-07-18T17:16:45;100528.44;;;37.27;21.31
48882;BME280;57063;51.406;-2.402;2022-07-18T17:19:10;100527.91;;;37.25;21.03
48882;BME280;57063;51.406;-2.402;2022-07-18T17:21:36;100525.19;;;37.15;21.37
48882;BME280;57063;51.406;-2.402;2022-07-18T17:24:02;100525.47;;;37.03;21.27
48882;BME280;57063;51.406;-2.402;2022-07-18T17:26:28;100526.19;;;37.34;20.80
48882;BME280;57063;51.406;-2.402;2022-07-18T17:28:53;100525.44;;;37.23;20.83
48882;BME280;57063;51.406;-2.402;2022-07-18T17:31:19;100523.56;;;37.14;20.68
48882;BME280;57063;51.406;-2.402;2022-07-18T17:33:45;100520.31;;;36.86;20.79
48882;BME280;57063;51.406;-2.402;2022-07-18T17:36:10;100523.59;;;36.88;21.52
48882;BME280;57063;51.406;-2.402;2022-07-18T17:38:38;100515.44;;;36.67;20.71
48882;BME280;57063;51.406;-2.402;2022-07-18T17:41:04;100513.75;;;36.87;20.76
48882;BME280;57063;51.406;-2.402;2022-07-18T17:43:29;100511.56;;;36.79;20.15
48882;BME280;57063;51.406;-2.402;2022-07-18T17:45:55;100520.63;;;36.79;20.77
48882;BME280;57063;51.406;-2.402;2022-07-18T17:48:22;100502.25;;;36.90;20.58
48882;BME280;57063;51.406;-2.402;2022-07-18T17:50:47;100511.59;;;36.74;21.05
48882;BME280;57063;51.406;-2.402;2022-07-18T17:53:13;100514.88;;;36.55;21.12
48882;BME280;57063;51.406;-2.402;2022-07-18T17:55:39;100507.75;;;36.59;20.79
48882;BME280;57063;51.406;-2.402;2022-07-18T17:58:05;100508.84;;;36.53;20.27
48882;BME280;57063;51.406;-2.402;2022-07-18T18:00:30;100505.03;;;36.69;20.89
48882;BME280;57063;51.406;-2.402;2022-07-18T18:02:56;100505.56;;;36.56;20.69
48882;BME280;57063;51.406;-2.402;2022-07-18T18:05:21;100511.06;;;36.46;20.67
48882;BME280;57063;51.406;-2.402;2022-07-18T18:07:46;100502.31;;;36.44;20.48
48882;BME280;57063;51.406;-2.402;2022-07-18T18:10:12;100499.28;;;36.61;20.89
48882;BME280;57063;51.406;-2.402;2022-07-18T18:12:38;100496.31;;;36.67;20.53
48882;BME280;57063;51.406;-2.402;2022-07-18T18:15:04;100503.41;;;36.48;22.19
48882;BME280;57063;51.406;-2.402;2022-07-18T18:17:29;100491.66;;;36.42;22.47
48882;BME280;57063;51.406;-2.402;2022-07-18T18:19:55;100489.19;;;36.41;22.62
48882;BME280;57063;51.406;-2.402;2022-07-18T18:22:20;100497.09;;;36.22;31.43
48882;BME280;57063;51.406;-2.402;2022-07-18T18:24:46;100500.91;;;35.95;24.11
48882;BME280;57063;51.406;-2.402;2022-07-18T18:27:12;100497.91;;;35.86;25.52
48882;BME280;57063;51.406;-2.402;2022-07-18T18:29:37;100497.31;;;35.69;26.41
48882;BME280;57063;51.406;-2.402;2022-07-18T18:32:03;100495.06;;;35.61;24.70
48882;BME280;57063;51.406;-2.402;2022-07-18T18:34:28;100496.66;;;35.46;24.10
48882;BME280;57063;51.406;-2.402;2022-07-18T18:36:53;100498.25;;;35.32;25.80
48882;BME280;57063;51.406;-2.402;2022-07-18T18:39:31;100498.25;;;35.32;24.95
48882;BME280;57063;51.406;-2.402;2022-07-18T18:41:58;100490.59;;;35.34;23.07
48882;BME280;57063;51.406;-2.402;2022-07-18T18:44:24;100498.53;;;35.35;23.53
48882;BME280;57063;51.406;-2.402;2022-07-18T18:46:50;100498.22;;;35.27;25.37
48882;BME280;57063;51.406;-2.402;2022-07-18T18:49:16;100495.94;;;35.08;28.27
48882;BME280;57063;51.406;-2.402;2022-07-18T18:51:43;100503.78;;;34.94;28.72
48882;BME280;57063;51.406;-2.402;2022-07-18T18:54:10;100503.88;;;34.67;27.47
48882;BME280;57063;51.406;-2.402;2022-07-18T18:56:36;100501.28;;;34.50;28.08
48882;BME280;57063;51.406;-2.402;2022-07-18T18:59:02;100496.88;;;34.44;28.88
48882;BME280;57063;51.406;-2.402;2022-07-18T19:01:27;100504.22;;;34.44;29.08
48882;BME280;57063;51.406;-2.402;2022-07-18T19:03:54;100508.53;;;34.40;28.41
48882;BME280;57063;51.406;-2.402;2022-07-18T19:06:20;100505.66;;;34.19;30.95
48882;BME280;57063;51.406;-2.402;2022-07-18T19:08:45;100501.84;;;33.93;34.42
48882;BME280;57063;51.406;-2.402;2022-07-18T19:11:11;100506.53;;;33.97;30.17
48882;BME280;57063;51.406;-2.402;2022-07-18T19:13:37;100505.97;;;34.01;26.73
48882;BME280;57063;51.406;-2.402;2022-07-18T19:16:02;100498.41;;;34.03;26.99
48882;BME280;57063;51.406;-2.402;2022-07-18T19:18:27;100491.47;;;34.17;27.15
48882;BME280;57063;51.406;-2.402;2022-07-18T19:20:53;100493.41;;;34.22;27.47
48882;BME280;57063;51.406;-2.402;2022-07-18T19:23:18;100499.00;;;34.37;27.87
48882;BME280;57063;51.406;-2.402;2022-07-18T19:25:44;100500.09;;;34.09;28.90
48882;BME280;57063;51.406;-2.402;2022-07-18T19:28:09;100492.53;;;34.16;28.61
48882;BME280;57063;51.406;-2.402;2022-07-18T19:30:34;100503.22;;;33.95;28.96
48882;BME280;57063;51.406;-2.402;2022-07-18T19:33:00;100495.47;;;34.09;29.13
48882;BME280;57063;51.406;-2.402;2022-07-18T19:35:26;100504.81;;;33.91;29.19
48882;BME280;57063;51.406;-2.402;2022-07-18T19:37:51;100513.31;;;33.95;29.44
48882;BME280;57063;51.406;-2.402;2022-07-18T19:40:17;100507.88;;;33.95;29.34
48882;BME280;57063;51.406;-2.402;2022-07-18T19:42:43;100507.56;;;33.91;29.20
48882;BME280;57063;51.406;-2.402;2022-07-18T19:45:08;100496.84;;;33.85;29.24
48882;BME280;57063;51.406;-2.402;2022-07-18T19:47:34;100498.91;;;33.72;29.08
48882;BME280;57063;51.406;-2.402;2022-07-18T19:50:00;100502.81;;;33.59;29.95